sensor_id;sensor_type;location;lat;lon;timestamp;pressure;altitude;pressure_sealevel;temperature;humidity
52105;BME280;38103;42.776;23.112;2024-02-23T00:02:13;93848.59;;;6.39;64.63
52105;BME280;38103;42.776;23.112;2024-02-23T00:04:38;93848.47;;;6.36;65.76
52105;BME280;38103;42.776;23.112;2024-02-23T00:07:03;93847.47;;;6.40;64.90
52105;BME280;38103;42.776;23.112;2024-02-23T00:09:29;93851.88;;;6.36;65.74
52105;BME280;38103;42.776;23.112;2024-02-23T00:11:54;93851.88;;;6.36;66.04
52105;BME280;38103;42.776;23.112;2024-02-23T00:14:20;93848.78;;;6.34;66.46
52105;BME280;38103;42.776;23.112;2024-02-23T00:16:46;93848.03;;;6.34;66.51
52105;BME280;38103;42.776;23.112;2024-02-23T00:19:11;93840.25;;;6.37;66.47
52105;BME280;38103;42.776;23.112;2024-02-23T00:21:37;93848.47;;;6.36;66.11
52105;BME280;38103;42.776;23.112;2024-02-23T00:24:04;93848.91;;;6.38;66.14
52105;BME280;38103;42.776;23.112;2024-02-23T00:26:29;93844.31;;;6.35;66.93
52105;BME280;38103;42.776;23.112;2024-02-23T00:28:55;93836.41;;;6.35;66.79
52105;BME280;38103;42.776;23.112;2024-02-23T00:31:20;93833.09;;;6.38;66.58
52105;BME280;38103;42.776;23.112;2024-02-23T00:33:46;93830.13;;;6.39;66.70
52105;BME280;38103;42.776;23.112;2024-02-23T00:36:11;93832.34;;;6.37;67.03
52105;BME280;38103;42.776;23.112;2024-02-23T00:38:37;93825.50;;;6.36;66.60
52105;BME280;38103;42.776;23.112;2024-02-23T00:41:02;93828.91;;;6.37;67.21
52105;BME280;38103;42.776;23.112;2024-02-23T00:43:28;93817.19;;;6.34;68.01
52105;BME280;38103;42.776;23.112;2024-02-23T00:45:56;93816.41;;;6.34;67.22
52105;BME280;38103;42.776;23.112;2024-02-23T00:48:21;93810.28;;;6.29;67.24
52105;BME280;38103;42.776;23.112;2024-02-23T00:50:46;93816.34;;;6.30;68.25
52105;BME280;38103;42.776;23.112;2024-02-23T00:53:12;93816.41;;;6.34;67.85
52105;BME280;38103;42.776;23.112;2024-02-23T00:55:37;93813.44;;;6.35;67.63
52105;BME280;38103;42.776;23.112;2024-02-23T00:58:03;93807.06;;;6.36;67.66
52105;BME280;38103;42.776;23.112;2024-02-23T01:00:29;93808.19;;;6.35;67.71
52105;BME280;38103;42.776;23.112;2024-02-23T01:02:54;93808.50;;;6.34;66.94
52105;BME280;38103;42.776;23.112;2024-02-23T01:05:19;93810.91;;;6.39;67.11
52105;BME280;38103;42.776;23.112;2024-02-23T01:07:45;93809.69;;;6.36;67.07
52105;BME280;38103;42.776;23.112;2024-02-23T01:10:10;93802.91;;;6.35;67.70
52105;BME280;38103;42.776;23.112;2024-02-23T01:12:35;93796.97;;;6.38;68.64
52105;BME280;38103;42.776;23.112;2024-02-23T01:15:01;93795.09;;;6.39;68.51
52105;BME280;38103;42.776;23.112;2024-02-23T01:17:26;93792.81;;;6.37;69.34
52105;BME280;38103;42.776;23.112;2024-02-23T01:19:52;93791.94;;;6.33;68.39
52105;BME280;38103;42.776;23.112;2024-02-23T01:22:17;93782.91;;;6.34;68.55
52105;BME280;38103;42.776;23.112;2024-02-23T01:24:43;93777.66;;;6.34;69.21
52105;BME280;38103;42.776;23.112;2024-02-23T01:27:08;93777.44;;;6.39;69.15
52105;BME280;38103;42.776;23.112;2024-02-23T01:29:33;93775.56;;;6.40;69.27
52105;BME280;38103;42.776;23.112;2024-02-23T01:31:59;93772.06;;;6.36;69.69
52105;BME280;38103;42.776;23.112;2024-02-23T01:34:25;93768.97;;;6.34;70.57
52105;BME280;38103;42.776;23.112;2024-02-23T01:36:50;93767.09;;;6.34;70.52
52105;BME280;38103;42.776;23.112;2024-02-23T01:39:16;93765.59;;;6.33;70.63
52105;BME280;38103;42.776;23.112;2024-02-23T01:41:41;93759.00;;;6.27;70.83
52105;BME280;38103;42.776;23.112;2024-02-23T01:44:10;93760.56;;;6.28;71.29
52105;BME280;38103;42.776;23.112;2024-02-23T01:46:35;93760.56;;;6.28;71.12
52105;BME280;38103;42.776;23.112;2024-02-23T01:49:01;93756.38;;;6.27;70.55
52105;BME280;38103;42.776;23.112;2024-02-23T01:51:26;93764.28;;;6.27;70.06
52105;BME280;38103;42.776;23.112;2024-02-23T01:53:52;93765.66;;;6.21;69.72
52105;BME280;38103;42.776;23.112;2024-02-23T01:56:18;93768.28;;;6.21;70.08
52105;BME280;38103;42.776;23.112;2024-02-23T01:58:45;93766.84;;;6.23;69.85
52105;BME280;38103;42.776;23.112;2024-02-23T02:01:11;93767.50;;;6.20;70.40
52105;BME280;38103;42.776;23.112;2024-02-23T02:03:38;93758.94;;;6.23;71.00
52105;BME280;38103;42.776;23.112;2024-02-23T02:06:05;93763.00;;;6.21;70.61
52105;BME280;38103;42.776;23.112;2024-02-23T02:08:33;93760.78;;;6.23;69.51
52105;BME280;38103;42.776;23.112;2024-02-23T02:10:58;93756.75;;;6.25;70.47
52105;BME280;38103;42.776;23.112;2024-02-23T02:13:24;93749.59;;;6.26;69.61
52105;BME280;38103;42.776;23.112;2024-02-23T02:15:49;93754.88;;;6.26;69.37
52105;BME280;38103;42.776;23.112;2024-02-23T02:18:14;93749.91;;;6.24;69.75
52105;BME280;38103;42.776;23.112;2024-02-23T02:21:05;93751.34;;;6.22;70.41
52105;BME280;38103;42.776;23.112;2024-02-23T02:23:30;93748.72;;;6.22;69.70
52105;BME280;38103;42.776;23.112;2024-02-23T02:25:56;93751.34;;;6.22;69.50
52105;BME280;38103;42.776;23.112;2024-02-23T02:28:23;93760.16;;;6.14;70.05
52105;BME280;38103;42.776;23.112;2024-02-23T02:30:49;93757.19;;;6.15;69.44
52105;BME280;38103;42.776;23.112;2024-02-23T02:33:15;93756.44;;;6.15;68.95
52105;BME280;38103;42.776;23.112;2024-02-23T02:35:40;93765.09;;;6.15;68.93
52105;BME280;38103;42.776;23.112;2024-02-23T02:38:06;93752.59;;;6.12;69.77
52105;BME280;38103;42.776;23.112;2024-02-23T02:40:31;93761.59;;;6.11;69.72
52105;BME280;38103;42.776;23.112;2024-02-23T02:42:57;93768.06;;;6.14;69.34
52105;BME280;38103;42.776;23.112;2024-02-23T02:45:23;93765.03;;;6.12;70.39
52105;BME280;38103;42.776;23.112;2024-02-23T02:47:49;93757.13;;;6.12;70.45
52105;BME280;38103;42.776;23.112;2024-02-23T02:50:14;93754.91;;;6.14;69.46
52105;BME280;38103;42.776;23.112;2024-02-23T02:52:39;93760.69;;;6.19;69.73
52105;BME280;38103;42.776;23.112;2024-02-23T02:55:05;93755.44;;;6.19;69.97
52105;BME280;38103;42.776;23.112;2024-02-23T02:57:30;93760.38;;;6.21;68.71
52105;BME280;38103;42.776;23.112;2024-02-23T02:59:56;93764.28;;;6.27;68.48
52105;BME280;38103;42.776;23.112;2024-02-23T03:02:21;93754.88;;;6.26;68.77
52105;BME280;38103;42.776;23.112;2024-02-23T03:04:48;93757.94;;;6.28;68.12
52105;BME280;38103;42.776;23.112;2024-02-23T03:07:13;93754.09;;;6.25;69.57
52105;BME280;38103;42.776;23.112;2024-02-23T03:09:38;93756.75;;;6.25;68.16
52105;BME280;38103;42.776;23.112;2024-02-23T03:12:04;93751.03;;;6.23;68.20
52105;BME280;38103;42.776;23.112;2024-02-23T03:14:29;93751.34;;;6.22;67.96
52105;BME280;38103;42.776;23.112;2024-02-23T03:16:54;93751.13;;;6.27;68.89
52105;BME280;38103;42.776;23.112;2024-02-23T03:19:20;93750.34;;;6.26;68.38
52105;BME280;38103;42.776;23.112;2024-02-23T03:21:47;93757.94;;;6.28;67.82
52105;BME280;38103;42.776;23.112;2024-02-23T03:24:13;93755.94;;;6.25;68.60
52105;BME280;38103;42.776;23.112;2024-02-23T03:26:38;93755.28;;;6.28;67.84
52105;BME280;38103;42.776;23.112;2024-02-23T03:29:03;93754.28;;;6.33;67.63
52105;BME280;38103;42.776;23.112;2024-02-23T03:31:29;93757.69;;;6.33;68.93
52105;BME280;38103;42.776;23.112;2024-02-23T03:33:54;93758.44;;;6.34;68.13
52105;BME280;38103;42.776;23.112;2024-02-23T03:36:19;93765.59;;;6.33;68.27
52105;BME280;38103;42.776;23.112;2024-02-23T03:38:45;93772.63;;;6.29;68.85
52105;BME280;38103;42.776;23.112;2024-02-23T03:41:10;93763.41;;;6.23;69.31
52105;BME280;38103;42.776;23.112;2024-02-23T03:43:35;93758.81;;;6.20;68.99
52105;BME280;38103;42.776;23.112;2024-02-23T03:46:02;93755.88;;;6.21;69.50
52105;BME280;38103;42.776;23.112;2024-02-23T03:48:28;93764.09;;;6.20;68.22
52105;BME280;38103;42.776;23.112;2024-02-23T03:50:53;93763.00;;;6.21;69.35
52105;BME280;38103;42.776;23.112;2024-02-23T03:53:19;93764.66;;;6.13;69.46
52105;BME280;38103;42.776;23.112;2024-02-23T03:55:44;93759.75;;;6.12;68.43
52105;BME280;38103;42.776;23.112;2024-02-23T03:58:10;93763.91;;;6.13;69.69
52105;BME280;38103;42.776;23.112;2024-02-23T04:00:35;93769.41;;;6.07;69.96
52105;BME280;38103;42.776;23.112;2024-02-23T04:03:01;93761.50;;;6.07;68.66
52105;BME280;38103;42.776;23.112;2024-02-23T04:05:26;93767.34;;;6.01;69.29
52105;BME280;38103;42.776;23.112;2024-02-23T04:07:51;93766.59;;;6.00;70.06
52105;BME280;38103;42.776;23.112;2024-02-23T04:10:17;93765.72;;;5.96;69.49
52105;BME280;38103;42.776;23.112;2024-02-23T04:12:46;93762.31;;;5.96;69.29
52105;BME280;38103;42.776;23.112;2024-02-23T04:15:12;93757.81;;;5.96;70.25
52105;BME280;38103;42.776;23.112;2024-02-23T04:17:37;93760.22;;;5.89;70.28
52105;BME280;38103;42.776;23.112;2024-02-23T04:20:06;93761.56;;;5.83;70.39
52105;BME280;38103;42.776;23.112;2024-02-23T04:22:32;93764.94;;;5.83;70.03
52105;BME280;38103;42.776;23.112;2024-02-23T04:24:57;93766.81;;;5.83;69.61
52105;BME280;38103;42.776;23.112;2024-02-23T04:27:22;93767.50;;;5.80;70.81
52105;BME280;38103;42.776;23.112;2024-02-23T04:29:47;93765.28;;;5.82;71.25
52105;BME280;38103;42.776;23.112;2024-02-23T04:32:13;93764.41;;;5.78;71.30
52105;BME280;38103;42.776;23.112;2024-02-23T04:34:38;93773.84;;;5.79;70.41
52105;BME280;38103;42.776;23.112;2024-02-23T04:37:05;93763.53;;;5.74;70.28
52105;BME280;38103;42.776;23.112;2024-02-23T04:39:31;93769.47;;;5.71;71.02
52105;BME280;38103;42.776;23.112;2024-02-23T04:41:56;93769.03;;;5.69;70.93
52105;BME280;38103;42.776;23.112;2024-02-23T04:44:22;93767.16;;;5.69;71.54
52105;BME280;38103;42.776;23.112;2024-02-23T04:46:47;93776.94;;;5.69;71.17
52105;BME280;38103;42.776;23.112;2024-02-23T04:49:13;93776.94;;;5.69;70.38
52105;BME280;38103;42.776;23.112;2024-02-23T04:51:39;93777.59;;;5.65;70.48
52105;BME280;38103;42.776;23.112;2024-02-23T04:54:04;93777.69;;;5.69;71.29
52105;BME280;38103;42.776;23.112;2024-02-23T04:56:29;93777.94;;;5.64;71.45
52105;BME280;38103;42.776;23.112;2024-02-23T04:58:55;93781.22;;;5.61;71.11
52105;BME280;38103;42.776;23.112;2024-02-23T05:01:20;93783.19;;;5.52;70.29
52105;BME280;38103;42.776;23.112;2024-02-23T05:03:45;93786.59;;;5.52;70.68
52105;BME280;38103;42.776;23.112;2024-02-23T05:06:11;93787.16;;;5.45;72.20
52105;BME280;38103;42.776;23.112;2024-02-23T05:08:37;93787.34;;;5.40;70.97
52105;BME280;38103;42.776;23.112;2024-02-23T05:11:03;93787.72;;;5.39;71.18
52105;BME280;38103;42.776;23.112;2024-02-23T05:13:28;93783.09;;;5.36;71.41
52105;BME280;38103;42.776;23.112;2024-02-23T05:15:55;93782.44;;;5.27;72.54
52105;BME280;38103;42.776;23.112;2024-02-23T05:18:20;93780.91;;;5.25;72.68
52105;BME280;38103;42.776;23.112;2024-02-23T05:20:46;93786.41;;;5.20;72.33
52105;BME280;38103;42.776;23.112;2024-02-23T05:23:11;93783.84;;;5.24;72.07
52105;BME280;38103;42.776;23.112;2024-02-23T05:25:36;93789.03;;;5.20;72.53
52105;BME280;38103;42.776;23.112;2024-02-23T05:28:02;93783.97;;;5.28;72.40
52105;BME280;38103;42.776;23.112;2024-02-23T05:30:27;93793.06;;;5.30;72.45
52105;BME280;38103;42.776;23.112;2024-02-23T05:32:56;93797.25;;;5.43;72.17
52105;BME280;38103;42.776;23.112;2024-02-23T05:35:22;93790.75;;;5.53;72.02
52105;BME280;38103;42.776;23.112;2024-02-23T05:37:47;93795.38;;;5.69;71.47
52105;BME280;38103;42.776;23.112;2024-02-23T05:40:13;93794.66;;;5.84;70.80
52105;BME280;38103;42.776;23.112;2024-02-23T05:42:39;93797.75;;;5.98;70.62
52105;BME280;38103;42.776;23.112;2024-02-23T05:45:06;93792.41;;;6.23;68.81
52105;BME280;38103;42.776;23.112;2024-02-23T05:47:43;93801.38;;;6.62;68.84
52105;BME280;38103;42.776;23.112;2024-02-23T05:50:08;93795.31;;;6.90;66.91
52105;BME280;38103;42.776;23.112;2024-02-23T05:52:37;93789.69;;;7.23;65.97
52105;BME280;38103;42.776;23.112;2024-02-23T05:55:03;93803.28;;;7.57;64.64
52105;BME280;38103;42.776;23.112;2024-02-23T05:57:29;93804.97;;;7.81;63.73
52105;BME280;38103;42.776;23.112;2024-02-23T05:59:54;93804.16;;;7.96;63.09
52105;BME280;38103;42.776;23.112;2024-02-23T06:02:23;93794.09;;;8.02;62.84
52105;BME280;38103;42.776;23.112;2024-02-23T06:04:48;93794.66;;;8.11;62.80
52105;BME280;38103;42.776;23.112;2024-02-23T06:07:14;93805.16;;;8.27;62.36
52105;BME280;38103;42.776;23.112;2024-02-23T06:09:43;93804.00;;;8.44;61.10
52105;BME280;38103;42.776;23.112;2024-02-23T06:12:08;93806.84;;;8.74;60.72
52105;BME280;38103;42.776;23.112;2024-02-23T06:14:34;93808.94;;;8.85;60.14
52105;BME280;38103;42.776;23.112;2024-02-23T06:17:00;93814.25;;;8.88;59.69
52105;BME280;38103;42.776;23.112;2024-02-23T06:19:25;93814.47;;;8.79;60.28
52105;BME280;38103;42.776;23.112;2024-02-23T06:21:51;93811.25;;;8.67;61.19
52105;BME280;38103;42.776;23.112;2024-02-23T06:24:16;93810.22;;;8.94;59.34
52105;BME280;38103;42.776;23.112;2024-02-23T06:26:42;93803.00;;;9.37;58.94
52105;BME280;38103;42.776;23.112;2024-02-23T06:29:07;93796.34;;;9.47;58.20
52105;BME280;38103;42.776;23.112;2024-02-23T06:31:38;93795.84;;;9.64;57.78
52105;BME280;38103;42.776;23.112;2024-02-23T06:34:04;93803.47;;;9.96;57.22
52105;BME280;38103;42.776;23.112;2024-02-23T06:36:29;93801.09;;;9.88;56.69
52105;BME280;38103;42.776;23.112;2024-02-23T06:38:54;93820.94;;;10.27;56.90
52105;BME280;38103;42.776;23.112;2024-02-23T06:41:20;93817.13;;;10.55;54.60
52105;BME280;38103;42.776;23.112;2024-02-23T06:43:45;93823.00;;;10.72;55.19
52105;BME280;38103;42.776;23.112;2024-02-23T06:46:11;93830.34;;;10.85;53.88
52105;BME280;38103;42.776;23.112;2024-02-23T06:48:37;93830.06;;;10.94;54.30
52105;BME280;38103;42.776;23.112;2024-02-23T06:51:06;93822.34;;;11.16;53.45
52105;BME280;38103;42.776;23.112;2024-02-23T06:53:35;93818.81;;;11.49;52.06
52105;BME280;38103;42.776;23.112;2024-02-23T06:56:00;93820.16;;;11.28;51.69
52105;BME280;38103;42.776;23.112;2024-02-23T06:58:26;93824.59;;;11.14;52.84
52105;BME280;38103;42.776;23.112;2024-02-23T07:00:52;93821.56;;;10.78;53.39
52105;BME280;38103;42.776;23.112;2024-02-23T07:03:17;93817.09;;;10.52;53.73
52105;BME280;38103;42.776;23.112;2024-02-23T07:05:43;93830.81;;;10.95;54.09
52105;BME280;38103;42.776;23.112;2024-02-23T07:08:10;93815.53;;;11.22;52.65
52105;BME280;38103;42.776;23.112;2024-02-23T07:10:35;93815.41;;;11.48;52.32
52105;BME280;38103;42.776;23.112;2024-02-23T07:13:01;93815.94;;;11.72;51.53
52105;BME280;38103;42.776;23.112;2024-02-23T07:15:26;93820.88;;;12.25;51.14
52105;BME280;38103;42.776;23.112;2024-02-23T07:17:52;93820.09;;;12.25;50.35
52105;BME280;38103;42.776;23.112;2024-02-23T07:20:17;93823.69;;;12.57;49.17
52105;BME280;38103;42.776;23.112;2024-02-23T07:22:44;93820.63;;;12.52;48.99
52105;BME280;38103;42.776;23.112;2024-02-23T07:25:11;93818.84;;;12.81;47.93
52105;BME280;38103;42.776;23.112;2024-02-23T07:27:36;93813.84;;;12.72;48.83
52105;BME280;38103;42.776;23.112;2024-02-23T07:30:02;93825.88;;;12.41;48.92
52105;BME280;38103;42.776;23.112;2024-02-23T07:32:28;93824.38;;;12.44;49.15
52105;BME280;38103;42.776;23.112;2024-02-23T07:34:55;93821.88;;;12.87;48.57
52105;BME280;38103;42.776;23.112;2024-02-23T07:37:20;93825.38;;;13.16;47.06
52105;BME280;38103;42.776;23.112;2024-02-23T07:39:45;93820.50;;;13.36;46.97
52105;BME280;38103;42.776;23.112;2024-02-23T07:42:11;93821.94;;;13.01;46.78
52105;BME280;38103;42.776;23.112;2024-02-23T07:44:38;93815.72;;;12.61;48.06
52105;BME280;38103;42.776;23.112;2024-02-23T07:47:04;93809.94;;;12.48;48.07
52105;BME280;38103;42.776;23.112;2024-02-23T07:49:29;93819.44;;;12.46;48.10
52105;BME280;38103;42.776;23.112;2024-02-23T07:51:55;93814.84;;;12.39;48.48
52105;BME280;38103;42.776;23.112;2024-02-23T07:54:20;93826.44;;;12.86;48.39
52105;BME280;38103;42.776;23.112;2024-02-23T07:56:46;93817.72;;;12.86;48.35
52105;BME280;38103;42.776;23.112;2024-02-23T07:59:11;93813.66;;;12.29;49.05
52105;BME280;38103;42.776;23.112;2024-02-23T08:01:36;93817.94;;;11.82;50.33
52105;BME280;38103;42.776;23.112;2024-02-23T08:04:02;93824.56;;;11.55;50.35
52105;BME280;38103;42.776;23.112;2024-02-23T08:06:28;93827.28;;;11.65;51.41
52105;BME280;38103;42.776;23.112;2024-02-23T08:08:53;93822.09;;;11.80;51.09
52105;BME280;38103;42.776;23.112;2024-02-23T08:11:20;93826.13;;;12.11;49.94
52105;BME280;38103;42.776;23.112;2024-02-23T08:13:45;93816.22;;;12.11;49.93
52105;BME280;38103;42.776;23.112;2024-02-23T08:16:11;93824.38;;;11.81;49.76
52105;BME280;38103;42.776;23.112;2024-02-23T08:39:06;93826.59;;;13.29;47.33
52105;BME280;38103;42.776;23.112;2024-02-23T08:41:33;93817.09;;;13.57;45.61
52105;BME280;38103;42.776;23.112;2024-02-23T08:43:58;93819.72;;;13.28;46.56
52105;BME280;38103;42.776;23.112;2024-02-23T08:46:23;93815.09;;;13.11;46.40
52105;BME280;38103;42.776;23.112;2024-02-23T08:48:49;93814.25;;;12.78;47.09
52105;BME280;38103;42.776;23.112;2024-02-23T08:51:14;93809.63;;;12.57;47.52
52105;BME280;38103;42.776;23.112;2024-02-23T08:53:40;93820.69;;;12.73;47.00
52105;BME280;38103;42.776;23.112;2024-02-23T09:39:52;93802.59;;;13.69;46.02
52105;BME280;38103;42.776;23.112;2024-02-23T09:42:19;93807.56;;;13.41;45.17
52105;BME280;38103;42.776;23.112;2024-02-23T09:44:53;93811.75;;;13.32;45.75
52105;BME280;38103;42.776;23.112;2024-02-23T09:47:22;93803.72;;;13.28;45.13
52105;BME280;38103;42.776;23.112;2024-02-23T09:49:49;93808.31;;;13.38;45.23
52105;BME280;38103;42.776;23.112;2024-02-23T09:52:18;93810.50;;;12.97;44.90
52105;BME280;38103;42.776;23.112;2024-02-23T09:54:44;93819.63;;;13.03;46.38
52105;BME280;38103;42.776;23.112;2024-02-23T09:57:10;93815.88;;;13.11;46.13
52105;BME280;38103;42.776;23.112;2024-02-23T09:59:35;93802.56;;;13.26;46.28
52105;BME280;38103;42.776;23.112;2024-02-23T10:02:15;93795.72;;;13.17;45.50
52105;BME280;38103;42.776;23.112;2024-02-23T10:04:42;93805.59;;;13.17;44.33
52105;BME280;38103;42.776;23.112;2024-02-23T10:07:14;93805.94;;;12.90;45.33
52105;BME280;38103;42.776;23.112;2024-02-23T10:09:41;93805.13;;;12.83;45.81
52105;BME280;38103;42.776;23.112;2024-02-23T10:12:07;93793.72;;;12.71;45.75
52105;BME280;38103;42.776;23.112;2024-02-23T10:14:32;93806.63;;;12.62;47.51
52105;BME280;38103;42.776;23.112;2024-02-23T10:16:57;93791.47;;;12.88;46.47
52105;BME280;38103;42.776;23.112;2024-02-23T10:19:23;93791.47;;;12.88;46.11
52105;BME280;38103;42.776;23.112;2024-02-23T10:21:54;93790.00;;;13.08;45.90
52105;BME280;38103;42.776;23.112;2024-02-23T10:24:19;93788.06;;;12.94;45.97
52105;BME280;38103;42.776;23.112;2024-02-23T10:26:45;93786.88;;;12.74;46.06
52105;BME280;38103;42.776;23.112;2024-02-23T10:29:10;93785.72;;;12.75;46.48
52105;BME280;38103;42.776;23.112;2024-02-23T10:31:36;93783.06;;;12.78;46.44
52105;BME280;38103;42.776;23.112;2024-02-23T10:34:07;93783.13;;;12.96;46.00
52105;BME280;38103;42.776;23.112;2024-02-23T10:36:36;93773.25;;;13.04;45.41
52105;BME280;38103;42.776;23.112;2024-02-23T10:39:03;93766.81;;;13.37;44.51
52105;BME280;38103;42.776;23.112;2024-02-23T10:41:32;93763.38;;;13.62;44.89
52105;BME280;38103;42.776;23.112;2024-02-23T10:44:00;93746.97;;;13.89;44.31
52105;BME280;38103;42.776;23.112;2024-02-23T10:46:26;93746.59;;;13.83;43.54
52105;BME280;38103;42.776;23.112;2024-02-23T10:48:54;93739.38;;;13.69;42.24
52105;BME280;38103;42.776;23.112;2024-02-23T10:51:21;93734.84;;;13.37;43.62
52105;BME280;38103;42.776;23.112;2024-02-23T10:53:46;93741.66;;;13.17;44.54
52105;BME280;38103;42.776;23.112;2024-02-23T10:56:13;93737.50;;;13.37;45.08
52105;BME280;38103;42.776;23.112;2024-02-23T10:58:39;93732.19;;;13.41;44.08
52105;BME280;38103;42.776;23.112;2024-02-23T11:01:06;93724.94;;;13.45;44.54
52105;BME280;38103;42.776;23.112;2024-02-23T11:03:33;93724.53;;;13.65;44.61
52105;BME280;38103;42.776;23.112;2024-02-23T11:05:59;93709.63;;;13.85;42.42
52105;BME280;38103;42.776;23.112;2024-02-23T11:08:32;93716.09;;;13.88;42.89
52105;BME280;38103;42.776;23.112;2024-02-23T11:10:57;93708.47;;;13.93;43.01
52105;BME280;38103;42.776;23.112;2024-02-23T11:13:35;93706.06;;;14.24;41.87
52105;BME280;38103;42.776;23.112;2024-02-23T11:16:08;93701.44;;;14.39;41.83
52105;BME280;38103;42.776;23.112;2024-02-23T11:18:38;93704.16;;;14.32;41.98
52105;BME280;38103;42.776;23.112;2024-02-23T11:21:05;93705.31;;;14.27;41.10
52105;BME280;38103;42.776;23.112;2024-02-23T11:26:06;93696.06;;;14.42;41.15
52105;BME280;38103;42.776;23.112;2024-02-23T11:28:40;93692.28;;;14.43;42.71
52105;BME280;38103;42.776;23.112;2024-02-23T11:31:12;93696.78;;;14.54;41.82
52105;BME280;38103;42.776;23.112;2024-02-23T11:33:38;93683.03;;;14.62;40.99
52105;BME280;38103;42.776;23.112;2024-02-23T11:36:10;93680.09;;;14.39;42.08
52105;BME280;38103;42.776;23.112;2024-02-23T11:38:36;93683.06;;;14.52;40.07
52105;BME280;38103;42.776;23.112;2024-02-23T11:41:02;93686.94;;;14.40;41.49
52105;BME280;38103;42.776;23.112;2024-02-23T11:43:28;93668.13;;;14.65;42.61
52105;BME280;38103;42.776;23.112;2024-02-23T11:45:54;93675.59;;;14.92;39.66
52105;BME280;38103;42.776;23.112;2024-02-23T11:48:19;93677.41;;;15.05;41.05
52105;BME280;38103;42.776;23.112;2024-02-23T11:50:48;93676.66;;;15.01;39.15
52105;BME280;38103;42.776;23.112;2024-02-23T11:53:13;93663.59;;;14.62;39.80
52105;BME280;38103;42.776;23.112;2024-02-23T11:55:39;93660.88;;;14.65;40.38
52105;BME280;38103;42.776;23.112;2024-02-23T11:58:05;93656.28;;;14.73;40.68
52105;BME280;38103;42.776;23.112;2024-02-23T12:00:31;93657.34;;;14.83;40.61
52105;BME280;38103;42.776;23.112;2024-02-23T12:02:57;93659.16;;;14.93;39.04
52105;BME280;38103;42.776;23.112;2024-02-23T12:05:22;93657.03;;;14.70;38.56
52105;BME280;38103;42.776;23.112;2024-02-23T12:07:47;93660.97;;;14.48;40.23
52105;BME280;38103;42.776;23.112;2024-02-23T12:10:13;93652.19;;;14.47;40.30
52105;BME280;38103;42.776;23.112;2024-02-23T12:12:39;93646.91;;;14.43;39.42
52105;BME280;38103;42.776;23.112;2024-02-23T12:15:06;93630.75;;;14.65;39.85
52105;BME280;38103;42.776;23.112;2024-02-23T12:17:31;93643.50;;;14.95;40.16
52105;BME280;38103;42.776;23.112;2024-02-23T12:20:00;93644.16;;;15.10;39.38
52105;BME280;38103;42.776;23.112;2024-02-23T12:22:25;93640.88;;;14.88;39.33
52105;BME280;38103;42.776;23.112;2024-02-23T12:24:51;93639.53;;;14.65;39.31
52105;BME280;38103;42.776;23.112;2024-02-23T12:27:17;93633.50;;;14.51;39.31
52105;BME280;38103;42.776;23.112;2024-02-23T12:29:51;93630.00;;;14.64;40.79
52105;BME280;38103;42.776;23.112;2024-02-23T12:32:20;93629.63;;;14.62;39.58
52105;BME280;38103;42.776;23.112;2024-02-23T12:34:45;93621.28;;;14.50;39.73
52105;BME280;38103;42.776;23.112;2024-02-23T12:37:14;93622.38;;;14.63;39.49
52105;BME280;38103;42.776;23.112;2024-02-23T12:39:40;93618.97;;;14.52;39.68
52105;BME280;38103;42.776;23.112;2024-02-23T12:42:05;93615.19;;;14.53;40.04
52105;BME280;38103;42.776;23.112;2024-02-23T12:44:30;93609.09;;;14.56;39.64
52105;BME280;38103;42.776;23.112;2024-02-23T12:46:56;93605.97;;;14.61;38.22
52105;BME280;38103;42.776;23.112;2024-02-23T12:49:21;93613.50;;;14.77;36.27
52105;BME280;38103;42.776;23.112;2024-02-23T12:51:46;93605.78;;;14.90;36.64
52105;BME280;38103;42.776;23.112;2024-02-23T12:54:12;93603.72;;;15.08;35.84
52105;BME280;38103;42.776;23.112;2024-02-23T12:56:37;93602.53;;;15.09;35.67
52105;BME280;38103;42.776;23.112;2024-02-23T12:59:02;93600.38;;;14.93;36.45
52105;BME280;38103;42.776;23.112;2024-02-23T13:01:28;93609.91;;;14.98;36.07
52105;BME280;38103;42.776;23.112;2024-02-23T13:03:53;93601.03;;;15.08;36.66
52105;BME280;38103;42.776;23.112;2024-02-23T13:06:19;93602.78;;;15.25;36.23
52105;BME280;38103;42.776;23.112;2024-02-23T13:08:44;93606.88;;;15.37;36.50
52105;BME280;38103;42.776;23.112;2024-02-23T13:11:09;93607.63;;;15.38;36.51
52105;BME280;38103;42.776;23.112;2024-02-23T13:13:35;93610.59;;;15.47;35.32
52105;BME280;38103;42.776;23.112;2024-02-23T13:16:00;93607.53;;;15.07;35.56
52105;BME280;38103;42.776;23.112;2024-02-23T13:18:26;93619.16;;;15.31;37.25
52105;BME280;38103;42.776;23.112;2024-02-23T13:20:51;93613.06;;;15.31;36.05
52105;BME280;38103;42.776;23.112;2024-02-23T13:23:17;93613.72;;;15.42;36.00
52105;BME280;38103;42.776;23.112;2024-02-23T13:25:43;93608.13;;;15.25;35.09
52105;BME280;38103;42.776;23.112;2024-02-23T13:28:09;93614.25;;;15.22;35.16
52105;BME280;38103;42.776;23.112;2024-02-23T13:30:35;93611.44;;;14.95;34.83
52105;BME280;38103;42.776;23.112;2024-02-23T13:33:01;93617.28;;;14.79;36.07
52105;BME280;38103;42.776;23.112;2024-02-23T13:35:26;93608.19;;;14.73;36.58
52105;BME280;38103;42.776;23.112;2024-02-23T13:37:52;93613.56;;;14.70;36.25
52105;BME280;38103;42.776;23.112;2024-02-23T13:40:18;93602.06;;;14.76;35.66
52105;BME280;38103;42.776;23.112;2024-02-23T13:42:43;93610.38;;;14.85;36.70
52105;BME280;38103;42.776;23.112;2024-02-23T13:45:11;93618.34;;;14.93;35.55
52105;BME280;38103;42.776;23.112;2024-02-23T13:47:39;93615.25;;;14.98;36.50
52105;BME280;38103;42.776;23.112;2024-02-23T13:50:05;93615.59;;;15.00;36.10
52105;BME280;38103;42.776;23.112;2024-02-23T13:52:30;93613.28;;;15.05;35.76
52105;BME280;38103;42.776;23.112;2024-02-23T13:54:56;93613.31;;;15.02;36.27
52105;BME280;38103;42.776;23.112;2024-02-23T13:57:21;93618.72;;;14.91;35.24